Weather at Mitchell County Hospital Heliport

Public forecast

Using degrees Fahrenheit for public forecast. Weather courtesy of forecast.io.

Closest aviation weather report (METAR) to Mitchell County Hospital Heliport

Closest report is Winston Field, 17.5 nm (32.3 km) NNW. Retrieved 2021/07/28 00:58 UTC (11 minutes ago):

KSNK 280058Z AUTO 14003KT 10SM CLR 35/16 A3003 RMK AO2

Closest aviation forecast (TAF) to Mitchell County Hospital Heliport

Closest forecast is Dyess Air Force Base, 51.8 nm (95.9 km) E. Retrieved 2021/07/27 22:42 UTC (2 hours ago):

TAF KDYS 272235Z 2722/2902 VRB06KT 9999 SCT150 QNH2994INS BECMG 2723/2724 VRB06KT 9999 BKN100 QNH2993INS BECMG 2818/2819 14006KT 9999 VCTS BKN080CB QNH2999INS BECMG 2821/2822 10006KT 9000 -TSRA SCT100 BKN200CB QNH2994INS BECMG 2822/2823 10006KT 9999 NSW SCT090 QNH2991INS TX38/2820Z TN25/2812Z